Time;durP1;ratioP1;P1;durP2;ratioP2;P2;SDS_P1;SDS_P2;PMS_P1;PMS_P2;Temp;Humidity;BMP_temperature;BMP_pressure;BME280_temperature;BME280_humidity;BME280_pressure;Samples;Min_cycle;Max_cycle;Signal;HPM_P1;HPM_P2
2022/05/25 00:01:06;;;;;;;10.68;5.90;;;;;;;;;;4993292;28;20023;-65
2022/05/25 00:03:33;;;;;;;11.45;6.82;;;;;;;;;;4993904;28;20027;-64
2022/05/25 00:06:00;;;;;;;10.05;6.68;;;;;;;;;;4993938;28;20037;-65
2022/05/25 00:08:27;;;;;;;9.25;6.13;;;;;;;;;;4993939;28;20388;-65
2022/05/25 00:10:53;;;;;;;16.90;6.75;;;;;;;;;;4993756;28;20034;-65
2022/05/25 00:13:18;;;;;;;9.55;6.40;;;;;;;;;;4993651;28;20029;-64
2022/05/25 00:15:44;;;;;;;11.75;6.35;;;;;;;;;;4993654;28;20046;-64
2022/05/25 00:18:09;;;;;;;8.82;5.85;;;;;;;;;;4993514;28;20035;-63
2022/05/25 00:20:35;;;;;;;8.93;6.20;;;;;;;;;;4993744;28;20034;-65
2022/05/25 00:23:01;;;;;;;9.38;5.60;;;;;;;;;;4991482;28;20056;-64
2022/05/25 00:25:30;;;;;;;8.27;5.63;;;;;;;;;;4993231;28;20384;-65
2022/05/25 00:28:00;;;;;;;9.68;6.40;;;;;;;;;;4992659;28;20026;-64
2022/05/25 00:30:27;;;;;;;10.75;6.22;;;;;;;;;;4993688;28;20022;-64
2022/05/25 00:32:57;;;;;;;7.00;5.18;;;;;;;;;;4992879;28;20491;-64
2022/05/25 00:35:25;;;;;;;7.40;5.28;;;;;;;;;;4986044;28;20030;-64
2022/05/25 00:37:51;;;;;;;7.93;5.35;;;;;;;;;;4984115;28;20041;-63
2022/05/25 00:40:42;;;;;;;9.02;5.68;;;;;;;;;;4985882;28;20022;-64
2022/05/25 00:43:09;;;;;;;11.32;6.22;;;;;;;;;;4983888;28;20042;-66
2022/05/25 00:45:40;;;;;;;7.35;5.43;;;;;;;;;;4989330;28;20116;-65
2022/05/25 00:48:09;;;;;;;10.20;5.28;;;;;;;;;;4992320;28;20035;-65
2022/05/25 00:53:20;;;;;;;13.35;5.82;;;;;;;;;;4984926;28;20033;-63
2022/05/25 00:55:46;;;;;;;10.15;5.70;;;;;;;;;;4984440;28;20041;-65
2022/05/25 00:58:11;;;;;;;9.43;5.75;;;;;;;;;;4986241;28;20030;-65
2022/05/25 01:00:37;;;;;;;7.25;5.50;;;;;;;;;;4990869;28;20022;-63
2022/05/25 01:03:11;;;;;;;9.10;5.72;;;;;;;;;;4993170;28;20023;-65
2022/05/25 01:05:45;;;;;;;9.27;5.70;;;;;;;;;;4992442;28;20021;-63
2022/05/25 01:08:32;;;;;;;8.82;5.50;;;;;;;;;;4993061;28;20101;-62
2022/05/25 01:11:22;;;;;;;7.47;5.50;;;;;;;;;;4973378;28;20030;-62
2022/05/25 01:14:03;;;;;;;7.60;5.10;;;;;;;;;;4979461;28;20018;-64
2022/05/25 01:17:20;;;;;;;10.13;5.75;;;;;;;;;;4983279;28;20488;-62
2022/05/25 01:20:15;;;;;;;9.30;5.97;;;;;;;;;;4926169;29;20496;-64
2022/05/25 01:23:05;;;;;;;7.53;5.32;;;;;;;;;;4924670;29;20132;-64
2022/05/25 01:26:03;;;;;;;9.10;5.68;;;;;;;;;;4920455;29;20409;-64
2022/05/25 01:29:02;;;;;;;10.18;5.75;;;;;;;;;;4876087;29;20048;-64
2022/05/25 01:32:01;;;;;;;7.68;5.32;;;;;;;;;;4883603;29;20076;-64
2022/05/25 01:34:44;;;;;;;9.60;5.85;;;;;;;;;;4884538;29;20049;-64
2022/05/25 01:37:35;;;;;;;8.48;5.20;;;;;;;;;;4894959;29;20101;-63
2022/05/25 01:40:17;;;;;;;6.95;4.65;;;;;;;;;;4894712;29;20095;-62
2022/05/25 01:42:57;;;;;;;8.77;5.55;;;;;;;;;;4894882;29;20104;-63
2022/05/25 01:45:29;;;;;;;8.50;5.53;;;;;;;;;;4882264;29;20118;-63
2022/05/25 01:47:59;;;;;;;10.15;5.35;;;;;;;;;;4876151;29;20101;-65
2022/05/25 01:50:33;;;;;;;8.85;5.80;;;;;;;;;;4876177;29;20146;-62
2022/05/25 01:53:02;;;;;;;8.55;5.47;;;;;;;;;;4876043;29;20245;-62
2022/05/25 01:55:41;;;;;;;10.77;6.85;;;;;;;;;;4918342;29;20043;-63
2022/05/25 01:58:11;;;;;;;9.52;6.05;;;;;;;;;;4955426;29;20057;-63
2022/05/25 02:00:39;;;;;;;9.52;5.53;;;;;;;;;;4955374;29;20098;-62
2022/05/25 02:05:59;;;;;;;9.75;6.05;;;;;;;;;;4972001;28;20040;-64
2022/05/25 02:08:46;;;;;;;9.30;5.50;;;;;;;;;;4976442;28;20029;-63
2022/05/25 02:11:34;;;;;;;11.48;6.10;;;;;;;;;;4975357;28;20415;-63
2022/05/25 02:14:44;;;;;;;7.47;5.63;;;;;;;;;;4976434;28;20034;-62
2022/05/25 02:17:20;;;;;;;8.80;4.97;;;;;;;;;;4977194;28;20181;-63
2022/05/25 02:20:16;;;;;;;9.00;5.75;;;;;;;;;;4995871;28;20120;-64
2022/05/25 02:22:59;;;;;;;8.63;5.63;;;;;;;;;;4995621;28;20110;-67
2022/05/25 02:25:34;;;;;;;8.20;5.00;;;;;;;;;;4995844;28;20023;-66
2022/05/25 02:28:25;;;;;;;8.63;5.53;;;;;;;;;;4995769;28;20068;-65
2022/05/25 02:30:52;;;;;;;;;;;;;;;;;;4996248;28;20080;-64
2022/05/25 02:33:38;;;;;;;8.55;5.15;;;;;;;;;;4995671;28;19968;-64
2022/05/25 02:36:06;;;;;;;10.73;5.28;;;;;;;;;;4995399;28;20112;-64
2022/05/25 02:38:33;;;;;;;7.43;5.65;;;;;;;;;;4995510;28;20065;-65
2022/05/25 02:41:05;;;;;;;9.05;5.68;;;;;;;;;;4995479;28;20033;-65
2022/05/25 02:43:31;;;;;;;9.32;5.10;;;;;;;;;;4995648;28;20105;-65
2022/05/25 02:45:57;;;;;;;8.23;5.50;;;;;;;;;;4995413;28;20109;-64
2022/05/25 02:48:23;;;;;;;10.80;6.10;;;;;;;;;;4994133;28;20026;-65
2022/05/25 02:50:48;;;;;;;9.77;5.75;;;;;;;;;;4995119;28;20472;-65
2022/05/25 02:53:14;;;;;;;7.75;5.75;;;;;;;;;;4995183;28;20026;-65
2022/05/25 02:55:39;;;;;;;9.65;5.70;;;;;;;;;;4995161;28;20030;-64
2022/05/25 02:58:05;;;;;;;8.07;6.00;;;;;;;;;;4995311;28;20026;-65
2022/05/25 03:00:30;;;;;;;8.50;5.93;;;;;;;;;;4995126;28;20547;-65
2022/05/25 03:02:56;;;;;;;15.60;6.28;;;;;;;;;;4995119;28;20022;-65
2022/05/25 03:05:23;;;;;;;10.55;6.72;;;;;;;;;;4995185;28;20027;-64
2022/05/25 03:07:49;;;;;;;9.32;6.70;;;;;;;;;;4994091;28;20033;-65
2022/05/25 03:10:14;;;;;;;9.32;6.30;;;;;;;;;;4995037;28;20041;-64
2022/05/25 03:12:40;;;;;;;9.45;6.20;;;;;;;;;;4994814;28;20030;-65
2022/05/25 03:15:06;;;;;;;9.32;6.63;;;;;;;;;;4994870;28;20057;-64
2022/05/25 03:17:32;;;;;;;7.50;5.25;;;;;;;;;;4994472;28;20042;-64
2022/05/25 03:19:57;;;;;;;8.02;5.80;;;;;;;;;;4994417;28;20156;-64
2022/05/25 03:22:23;;;;;;;9.18;6.05;;;;;;;;;;4994648;28;20435;-64
2022/05/25 03:24:49;;;;;;;9.38;6.07;;;;;;;;;;4995033;28;20065;-64
2022/05/25 03:27:15;;;;;;;11.85;6.60;;;;;;;;;;4994623;28;20522;-65
2022/05/25 03:29:42;;;;;;;11.85;6.25;;;;;;;;;;4994653;28;20026;-65
2022/05/25 03:32:09;;;;;;;10.40;6.43;;;;;;;;;;4994544;28;20038;-65
2022/05/25 03:34:34;;;;;;;14.57;5.70;;;;;;;;;;4994078;28;20053;-64
2022/05/25 03:37:00;;;;;;;9.80;6.20;;;;;;;;;;4993289;28;20027;-65
2022/05/25 03:39:26;;;;;;;11.25;6.25;;;;;;;;;;4994283;28;20093;-65
2022/05/25 03:41:56;;;;;;;11.98;6.90;;;;;;;;;;4994463;28;20038;-65
2022/05/25 03:44:22;;;;;;;12.13;5.80;;;;;;;;;;4994316;28;20030;-65
2022/05/25 03:46:49;;;;;;;12.48;6.30;;;;;;;;;;4994219;28;20037;-65
2022/05/25 03:49:14;;;;;;;7.97;5.70;;;;;;;;;;4994035;28;20022;-65
2022/05/25 03:51:40;;;;;;;9.57;5.97;;;;;;;;;;4994261;28;20033;-65
2022/05/25 03:54:05;;;;;;;8.20;5.93;;;;;;;;;;4994125;28;20053;-65
2022/05/25 03:56:31;;;;;;;8.60;6.20;;;;;;;;;;4994095;28;20027;-65
2022/05/25 03:58:56;;;;;;;7.93;5.88;;;;;;;;;;4994132;28;20126;-63
2022/05/25 04:01:22;;;;;;;10.18;6.07;;;;;;;;;;4994142;28;20464;-64
2022/05/25 04:03:47;;;;;;;9.70;6.60;;;;;;;;;;4993771;28;20030;-65
2022/05/25 04:06:13;;;;;;;7.40;6.18;;;;;;;;;;4993908;28;20034;-65
2022/05/25 04:08:38;;;;;;;9.25;6.20;;;;;;;;;;4993940;28;20480;-64
2022/05/25 04:11:04;;;;;;;13.05;6.15;;;;;;;;;;4993830;28;20026;-65
2022/05/25 04:13:29;;;;;;;10.63;6.28;;;;;;;;;;4993765;28;20027;-62
2022/05/25 04:15:55;;;;;;;10.98;6.25;;;;;;;;;;4993482;28;20078;-65
2022/05/25 04:18:20;;;;;;;8.05;5.63;;;;;;;;;;4992989;28;20529;-63
2022/05/25 04:20:46;;;;;;;12.15;6.18;;;;;;;;;;4993767;28;20053;-65
2022/05/25 04:23:12;;;;;;;9.15;5.63;;;;;;;;;;4993779;28;20451;-65
2022/05/25 04:25:39;;;;;;;7.78;5.57;;;;;;;;;;4993707;28;20021;-64
2022/05/25 04:28:06;;;;;;;6.93;5.15;;;;;;;;;;4993430;28;20407;-65
2022/05/25 04:30:31;;;;;;;8.50;5.60;;;;;;;;;;4993497;28;20116;-64
2022/05/25 04:32:57;;;;;;;6.97;5.57;;;;;;;;;;4993357;28;20054;-64
2022/05/25 04:35:24;;;;;;;10.90;6.03;;;;;;;;;;4993396;28;20026;-64
2022/05/25 04:37:52;;;;;;;10.55;5.72;;;;;;;;;;4993306;28;20031;-64
2022/05/25 04:40:39;;;;;;;9.50;5.28;;;;;;;;;;4991989;28;20037;-65
2022/05/25 04:43:14;;;;;;;7.15;5.28;;;;;;;;;;4993347;28;20026;-65
2022/05/25 04:45:41;;;;;;;8.65;5.57;;;;;;;;;;4993309;28;20037;-64
2022/05/25 04:48:07;;;;;;;7.68;5.38;;;;;;;;;;4993075;28;20030;-62
2022/05/25 04:50:40;;;;;;;8.63;6.03;;;;;;;;;;4993292;28;20026;-64
2022/05/25 04:53:07;;;;;;;11.13;6.45;;;;;;;;;;4992029;28;20121;-65
2022/05/25 04:58:36;;;;;;;10.93;6.22;;;;;;;;;;4993208;28;20122;-65
2022/05/25 05:01:03;;;;;;;7.97;6.07;;;;;;;;;;4992938;28;20474;-65
2022/05/25 05:03:29;;;;;;;9.45;6.05;;;;;;;;;;4993195;28;20554;-65
2022/05/25 05:05:56;;;;;;;7.82;5.88;;;;;;;;;;4993053;28;20022;-64
2022/05/25 05:08:22;;;;;;;9.90;5.78;;;;;;;;;;4993139;28;20022;-64
2022/05/25 05:10:49;;;;;;;11.25;6.43;;;;;;;;;;4993069;28;20547;-63
2022/05/25 05:13:14;;;;;;;10.27;6.03;;;;;;;;;;4993035;28;20038;-65
2022/05/25 05:15:43;;;;;;;9.90;5.65;;;;;;;;;;4992596;28;20101;-65
2022/05/25 05:18:10;;;;;;;11.35;6.90;;;;;;;;;;4992730;28;20030;-63
2022/05/25 05:20:37;;;;;;;9.55;5.60;;;;;;;;;;4991871;28;20027;-65
2022/05/25 05:23:03;;;;;;;10.48;6.30;;;;;;;;;;4993007;28;20027;-64
2022/05/25 05:25:29;;;;;;;10.02;6.03;;;;;;;;;;4992927;28;20030;-63
2022/05/25 05:28:01;;;;;;;8.45;6.03;;;;;;;;;;4992909;28;20041;-65
2022/05/25 05:30:26;;;;;;;10.20;6.63;;;;;;;;;;4994727;28;20026;-64
2022/05/25 05:32:52;;;;;;;10.88;6.70;;;;;;;;;;4996813;28;20030;-64
2022/05/25 05:35:17;;;;;;;13.50;6.72;;;;;;;;;;4996528;28;20045;-63
2022/05/25 05:37:46;;;;;;;10.15;7.15;;;;;;;;;;4996668;28;20026;-64
2022/05/25 05:40:14;;;;;;;10.27;7.15;;;;;;;;;;4996562;28;20025;-64
2022/05/25 05:42:43;;;;;;;13.18;8.30;;;;;;;;;;4996534;28;20056;-65
2022/05/25 05:45:13;;;;;;;10.05;6.53;;;;;;;;;;4996425;28;20084;-65
2022/05/25 05:47:58;;;;;;;9.82;6.60;;;;;;;;;;4996554;28;20054;-65
2022/05/25 05:50:25;;;;;;;9.02;6.43;;;;;;;;;;4996488;28;20022;-64
2022/05/25 05:52:52;;;;;;;8.63;6.40;;;;;;;;;;4996398;28;20026;-65
2022/05/25 05:55:19;;;;;;;13.20;6.80;;;;;;;;;;4996228;28;20062;-65
2022/05/25 05:57:45;;;;;;;10.85;6.50;;;;;;;;;;4996440;28;20069;-65
2022/05/25 06:00:14;;;;;;;7.40;6.13;;;;;;;;;;4995923;28;20030;-65
2022/05/25 06:02:40;;;;;;;7.60;6.10;;;;;;;;;;4996243;28;20018;-64
2022/05/25 06:05:06;;;;;;;15.32;7.05;;;;;;;;;;4996199;28;20030;-65
2022/05/25 06:07:31;;;;;;;11.73;6.57;;;;;;;;;;4996186;28;20030;-63
2022/05/25 06:09:57;;;;;;;9.13;6.15;;;;;;;;;;4996139;28;20026;-66
2022/05/25 06:12:23;;;;;;;13.25;6.35;;;;;;;;;;4996004;28;20040;-66
2022/05/25 06:14:48;;;;;;;11.10;6.80;;;;;;;;;;4995983;28;20022;-63
2022/05/25 06:19:59;;;;;;;11.43;6.25;;;;;;;;;;4995746;28;20104;-66
2022/05/25 06:22:25;;;;;;;8.95;6.50;;;;;;;;;;4995974;28;20019;-66
2022/05/25 06:24:51;;;;;;;12.93;7.32;;;;;;;;;;4995982;28;20037;-64
2022/05/25 06:27:19;;;;;;;11.43;6.45;;;;;;;;;;4995848;28;20022;-65
2022/05/25 06:29:48;;;;;;;12.95;6.85;;;;;;;;;;4995596;28;20514;-63
2022/05/25 06:32:15;;;;;;;16.70;7.95;;;;;;;;;;4995505;28;20028;-63
2022/05/25 06:34:42;;;;;;;9.98;6.70;;;;;;;;;;4995649;28;20049;-63
2022/05/25 06:37:13;;;;;;;9.20;5.65;;;;;;;;;;4995571;28;20534;-64
2022/05/25 06:39:39;;;;;;;11.90;6.20;;;;;;;;;;4995644;28;20551;-63
2022/05/25 06:42:05;;;;;;;8.10;5.63;;;;;;;;;;4995310;28;20114;-65
2022/05/25 06:44:31;;;;;;;8.95;5.57;;;;;;;;;;4994133;28;20022;-65
2022/05/25 06:46:57;;;;;;;14.55;5.70;;;;;;;;;;4995481;28;20483;-64
2022/05/25 06:49:23;;;;;;;9.68;5.20;;;;;;;;;;4995365;28;20023;-65
2022/05/25 06:51:48;;;;;;;12.43;5.93;;;;;;;;;;4995419;28;20023;-66
2022/05/25 06:54:16;;;;;;;11.30;4.70;;;;;;;;;;4995146;28;20026;-63
2022/05/25 06:56:41;;;;;;;8.30;4.55;;;;;;;;;;4995143;28;20073;-63
2022/05/25 06:59:07;;;;;;;7.82;4.70;;;;;;;;;;4990293;28;20042;-67
2022/05/25 07:01:34;;;;;;;11.10;4.03;;;;;;;;;;4988798;28;20046;-66
2022/05/25 07:04:00;;;;;;;10.27;4.40;;;;;;;;;;4992389;28;20392;-66
2022/05/25 07:06:26;;;;;;;6.93;4.07;;;;;;;;;;4977909;28;20034;-65
2022/05/25 07:08:53;;;;;;;5.82;4.57;;;;;;;;;;4995453;28;20109;-66
2022/05/25 07:11:20;;;;;;;6.53;3.83;;;;;;;;;;4995765;28;20473;-67
2022/05/25 07:13:46;;;;;;;3.92;2.25;;;;;;;;;;4995032;28;20406;-66
2022/05/25 07:16:15;;;;;;;9.40;3.97;;;;;;;;;;4994928;28;20087;-67
2022/05/25 07:18:42;;;;;;;5.22;3.20;;;;;;;;;;4994713;28;20070;-65
2022/05/25 07:21:11;;;;;;;8.18;2.90;;;;;;;;;;4993506;28;20034;-67
2022/05/25 07:23:39;;;;;;;4.38;2.25;;;;;;;;;;4993605;28;20065;-67
2022/05/25 07:26:06;;;;;;;7.03;2.83;;;;;;;;;;4998325;28;20026;-67
2022/05/25 07:28:33;;;;;;;7.13;2.60;;;;;;;;;;4998764;28;20030;-67
2022/05/25 07:31:05;;;;;;;5.32;2.80;;;;;;;;;;4993273;28;20129;-70
2022/05/25 07:33:31;;;;;;;3.97;2.85;;;;;;;;;;4989127;28;20085;-68
2022/05/25 07:35:57;;;;;;;3.55;2.90;;;;;;;;;;4983658;28;20035;-70
2022/05/25 07:38:24;;;;;;;5.97;2.60;;;;;;;;;;4986667;28;20022;-69
2022/05/25 07:40:50;;;;;;;3.60;2.50;;;;;;;;;;4987772;28;20030;-68
2022/05/25 07:43:19;;;;;;;5.50;2.97;;;;;;;;;;4988770;28;20476;-67
2022/05/25 07:45:46;;;;;;;9.10;2.80;;;;;;;;;;4993120;28;20048;-67
2022/05/25 07:48:12;;;;;;;4.03;3.15;;;;;;;;;;4994185;28;20398;-67
2022/05/25 07:50:39;;;;;;;7.05;3.10;;;;;;;;;;4993740;28;20026;-67
2022/05/25 07:53:55;;;;;;;8.45;3.58;;;;;;;;;;4987895;28;20480;-69
2022/05/25 07:55:55;;;;;;;5.38;3.17;;;;;;;;;;4985542;28;20050;-68
2022/05/25 07:58:21;;;;;;;10.35;3.50;;;;;;;;;;4986394;28;20410;-68
2022/05/25 08:00:51;;;;;;;8.80;4.15;;;;;;;;;;4990470;28;20501;-68
2022/05/25 08:06:01;;;;;;;4.90;3.85;;;;;;;;;;4993346;28;20157;-68
2022/05/25 08:08:27;;;;;;;9.05;5.18;;;;;;;;;;4994026;28;20447;-67
2022/05/25 08:11:06;;;;;;;4.88;3.35;;;;;;;;;;4993693;28;20031;-65
2022/05/25 08:13:35;;;;;;;5.50;3.40;;;;;;;;;;4994793;28;20080;-66
2022/05/25 08:16:02;;;;;;;4.72;3.70;;;;;;;;;;4993563;28;20116;-65
2022/05/25 08:18:27;;;;;;;5.63;3.85;;;;;;;;;;4992456;28;20034;-64
2022/05/25 08:20:53;;;;;;;4.65;3.50;;;;;;;;;;4993764;28;20030;-65
2022/05/25 08:23:18;;;;;;;6.18;3.70;;;;;;;;;;4993734;28;20054;-67
2022/05/25 08:25:46;;;;;;;5.75;3.97;;;;;;;;;;4994182;28;20116;-68
2022/05/25 08:28:12;;;;;;;5.13;3.67;;;;;;;;;;4993956;28;20406;-67
2022/05/25 08:30:40;;;;;;;7.10;3.92;;;;;;;;;;4994115;28;20029;-66
2022/05/25 08:33:06;;;;;;;4.38;3.20;;;;;;;;;;4993613;28;20018;-69
2022/05/25 08:35:32;;;;;;;3.83;2.65;;;;;;;;;;4993884;28;20045;-67
2022/05/25 08:37:58;;;;;;;5.05;3.10;;;;;;;;;;4993731;28;20069;-67
2022/05/25 08:40:27;;;;;;;3.58;2.92;;;;;;;;;;4993789;28;20094;-66
2022/05/25 08:43:04;;;;;;;5.15;2.95;;;;;;;;;;4993534;28;20022;-65
2022/05/25 08:45:58;;;;;;;9.02;3.22;;;;;;;;;;4993529;28;20029;-64
2022/05/25 08:48:24;;;;;;;9.80;3.38;;;;;;;;;;4992285;28;20388;-64
2022/05/25 08:50:59;;;;;;;3.90;2.33;;;;;;;;;;4993265;28;20149;-63
2022/05/25 08:53:25;;;;;;;3.42;2.42;;;;;;;;;;4992662;28;20026;-65
2022/05/25 08:56:24;;;;;;;3.83;2.60;;;;;;;;;;4993471;28;20061;-63
2022/05/25 08:59:14;;;;;;;4.90;2.70;;;;;;;;;;4993225;28;20037;-65
2022/05/25 09:01:50;;;;;;;3.75;2.60;;;;;;;;;;4993330;28;20088;-64
2022/05/25 09:04:47;;;;;;;4.68;2.55;;;;;;;;;;4992074;28;20034;-63
2022/05/25 09:07:31;;;;;;;6.03;2.70;;;;;;;;;;4993457;28;20467;-64
2022/05/25 09:09:57;;;;;;;5.70;2.60;;;;;;;;;;4993285;28;20026;-63
2022/05/25 09:12:44;;;;;;;3.60;2.58;;;;;;;;;;4998297;28;20463;-64
2022/05/25 09:15:23;;;;;;;5.68;3.00;;;;;;;;;;5001957;28;20058;-62
2022/05/25 09:18:05;;;;;;;3.63;2.47;;;;;;;;;;4999704;28;20088;-64
2022/05/25 09:20:36;;;;;;;4.15;2.50;;;;;;;;;;5002419;28;20082;-64
2022/05/25 09:23:02;;;;;;;5.57;2.67;;;;;;;;;;4995179;28;20042;-64
2022/05/25 09:25:29;;;;;;;3.72;2.50;;;;;;;;;;4992616;28;20089;-64
2022/05/25 09:28:03;;;;;;;6.03;2.88;;;;;;;;;;4992289;28;20026;-64
2022/05/25 09:30:31;;;;;;;5.35;2.65;;;;;;;;;;4991201;28;20077;-64
2022/05/25 09:33:04;;;;;;;4.25;2.50;;;;;;;;;;4983337;28;20026;-63
2022/05/25 09:35:45;;;;;;;5.82;2.65;;;;;;;;;;4978753;28;20038;-64
2022/05/25 09:38:42;;;;;;;3.88;2.80;;;;;;;;;;4992132;28;20038;-64
2022/05/25 09:41:12;;;;;;;4.15;2.80;;;;;;;;;;4991785;28;20499;-63
2022/05/25 09:43:39;;;;;;;4.97;3.20;;;;;;;;;;4992417;28;20034;-64
2022/05/25 09:46:22;;;;;;;5.45;2.53;;;;;;;;;;4992012;28;20125;-64
2022/05/25 09:48:50;;;;;;;3.33;1.90;;;;;;;;;;4992038;28;20473;-64
2022/05/25 09:51:22;;;;;;;3.08;1.98;;;;;;;;;;4992129;28;20026;-64
2022/05/25 09:54:00;;;;;;;2.53;1.60;;;;;;;;;;4996995;28;20037;-64
2022/05/25 09:57:02;;;;;;;2.70;1.83;;;;;;;;;;4993481;28;20073;-65
2022/05/25 09:59:42;;;;;;;2.88;1.30;;;;;;;;;;4969794;28;20043;-64
2022/05/25 10:02:34;;;;;;;4.55;1.42;;;;;;;;;;4959588;28;20514;-65
2022/05/25 10:05:17;;;;;;;4.05;1.17;;;;;;;;;;4960928;28;20032;-64
2022/05/25 10:08:30;;;;;;;1.73;1.20;;;;;;;;;;4962523;28;20114;-65
2022/05/25 10:11:00;;;;;;;3.45;1.40;;;;;;;;;;4929640;29;20595;-64
2022/05/25 10:13:29;;;;;;;2.70;1.30;;;;;;;;;;4931544;29;20058;-65
2022/05/25 10:15:55;;;;;;;3.72;1.35;;;;;;;;;;4932258;29;20051;-65
2022/05/25 10:18:41;;;;;;;2.38;1.38;;;;;;;;;;4933288;29;20118;-65
2022/05/25 10:21:21;;;;;;;1.67;1.40;;;;;;;;;;4934152;29;20030;-64
2022/05/25 10:23:46;;;;;;;2.53;1.38;;;;;;;;;;4934600;29;20035;-65
2022/05/25 10:26:19;;;;;;;4.20;1.80;;;;;;;;;;4934803;29;20094;-65
2022/05/25 10:28:52;;;;;;;3.05;1.42;;;;;;;;;;4935023;29;20397;-63
2022/05/25 10:37:19;;;;;;;1.52;1.30;;;;;;;;;;4911518;29;20031;-64
2022/05/25 10:40:07;;;;;;;3.42;1.77;;;;;;;;;;4905406;29;20036;-62
2022/05/25 10:42:37;;;;;;;1.73;1.42;;;;;;;;;;4905308;29;20028;-65
2022/05/25 10:45:08;;;;;;;1.85;1.42;;;;;;;;;;4968076;28;20403;-65
2022/05/25 10:48:15;;;;;;;3.85;1.58;;;;;;;;;;4997206;28;20514;-63
2022/05/25 10:50:50;;;;;;;2.70;1.63;;;;;;;;;;5000239;28;20120;-63
2022/05/25 10:54:44;;;;;;;8.07;1.48;;;;;;;;;;5005600;28;20026;-65
2022/05/25 10:56:42;;;;;;;3.05;1.38;;;;;;;;;;4997421;28;20038;-69
2022/05/25 10:59:21;;;;;;;3.55;1.40;;;;;;;;;;5003517;28;20099;-67
2022/05/25 11:01:59;;;;;;;2.90;1.33;;;;;;;;;;5001977;28;20030;-65
2022/05/25 11:04:52;;;;;;;2.85;1.65;;;;;;;;;;5002722;28;20105;-66
2022/05/25 11:07:33;;;;;;;2.40;1.30;;;;;;;;;;5005972;28;20026;-65
2022/05/25 11:10:19;;;;;;;3.17;1.50;;;;;;;;;;4997331;28;20027;-65
2022/05/25 11:13:20;;;;;;;1.92;1.45;;;;;;;;;;4992060;28;20073;-67
2022/05/25 11:15:55;;;;;;;4.00;1.50;;;;;;;;;;4947566;28;20062;-64
2022/05/25 11:18:29;;;;;;;2.42;1.70;;;;;;;;;;4948612;28;20043;-66
2022/05/25 11:21:26;;;;;;;2.90;1.60;;;;;;;;;;4948940;28;20064;-66
2022/05/25 11:24:00;;;;;;;4.32;1.70;;;;;;;;;;4950115;28;20055;-66
2022/05/25 11:26:52;;;;;;;2.72;1.67;;;;;;;;;;4943628;28;20042;-61
2022/05/25 11:29:23;;;;;;;1.60;1.40;;;;;;;;;;4947267;28;20110;-62
2022/05/25 11:31:54;;;;;;;2.38;1.40;;;;;;;;;;4946271;28;20027;-61
2022/05/25 11:34:45;;;;;;;2.97;1.50;;;;;;;;;;4932403;28;20073;-62
2022/05/25 11:37:11;;;;;;;3.78;1.38;;;;;;;;;;4955449;28;20070;-62
2022/05/25 11:39:42;;;;;;;2.63;1.50;;;;;;;;;;4973528;28;20054;-60
2022/05/25 11:42:31;;;;;;;3.67;1.20;;;;;;;;;;4973272;28;20031;-61
2022/05/25 11:45:37;;;;;;;4.75;1.40;;;;;;;;;;4973499;28;20061;-61
2022/05/25 11:48:29;;;;;;;2.13;1.48;;;;;;;;;;4896275;29;20076;-61
2022/05/25 11:51:17;;;;;;;2.22;1.50;;;;;;;;;;4919904;29;20068;-60
2022/05/25 11:54:01;;;;;;;3.13;1.20;;;;;;;;;;4932565;29;20609;-61
2022/05/25 11:56:37;;;;;;;3.28;1.23;;;;;;;;;;4921208;29;20055;-61
2022/05/25 11:59:32;;;;;;;1.95;1.10;;;;;;;;;;4934081;29;20028;-62
2022/05/25 12:02:40;;;;;;;3.55;1.40;;;;;;;;;;4914541;29;20048;-62
2022/05/25 12:05:15;;;;;;;2.22;0.98;;;;;;;;;;4858604;29;20081;-61
2022/05/25 12:08:22;;;;;;;3.42;1.30;;;;;;;;;;4858875;29;20086;-63
2022/05/25 12:11:06;;;;;;;1.20;0.95;;;;;;;;;;4858831;29;20168;-63
2022/05/25 12:13:47;;;;;;;4.60;1.00;;;;;;;;;;4858515;29;20049;-63
2022/05/25 12:16:23;;;;;;;4.43;1.05;;;;;;;;;;4857827;29;20057;-62
2022/05/25 12:19:04;;;;;;;2.88;1.60;;;;;;;;;;4845112;29;20061;-64
2022/05/25 12:21:37;;;;;;;1.73;1.00;;;;;;;;;;4840113;29;20041;-66
2022/05/25 12:24:09;;;;;;;1.55;1.00;;;;;;;;;;4865955;29;20101;-66
2022/05/25 12:26:37;;;;;;;2.35;0.98;;;;;;;;;;4876642;29;20048;-64
2022/05/25 12:29:23;;;;;;;3.08;0.88;;;;;;;;;;4877059;29;20040;-64
2022/05/25 12:31:53;;;;;;;1.45;0.90;;;;;;;;;;4876724;29;20085;-64
2022/05/25 12:34:27;;;;;;;5.68;1.00;;;;;;;;;;4873150;29;20033;-63
2022/05/25 12:36:53;;;;;;;1.58;0.85;;;;;;;;;;4876797;29;20132;-63
2022/05/25 12:39:43;;;;;;;2.15;0.95;;;;;;;;;;4900891;29;20123;-62
2022/05/25 12:42:24;;;;;;;6.57;1.60;;;;;;;;;;4953954;28;20057;-62
2022/05/25 12:50:47;;;;;;;5.15;1.40;;;;;;;;;;4975732;28;20099;-61
2022/05/25 12:53:55;;;;;;;1.50;1.13;;;;;;;;;;4975372;28;20026;-61
2022/05/25 12:56:24;;;;;;;1.70;1.10;;;;;;;;;;4952847;29;20588;-62
2022/05/25 12:58:52;;;;;;;3.15;1.67;;;;;;;;;;4952515;29;20031;-62
2022/05/25 13:01:23;;;;;;;1.67;1.13;;;;;;;;;;4952109;29;20058;-63
2022/05/25 13:03:49;;;;;;;2.33;1.40;;;;;;;;;;4952398;29;20031;-63
2022/05/25 13:06:39;;;;;;;5.30;1.50;;;;;;;;;;4952344;29;20508;-62
2022/05/25 13:09:08;;;;;;;1.35;1.00;;;;;;;;;;4876834;29;20043;-62
2022/05/25 13:11:43;;;;;;;2.85;1.10;;;;;;;;;;4878978;29;20355;-62
2022/05/25 13:14:16;;;;;;;3.08;1.10;;;;;;;;;;4895238;29;20060;-62
2022/05/25 13:16:41;;;;;;;1.40;0.98;;;;;;;;;;4895412;29;20088;-62
2022/05/25 13:19:31;;;;;;;1.73;0.98;;;;;;;;;;4895514;29;20036;-64
2022/05/25 13:22:03;;;;;;;;;;;;;;;;;;4895860;29;20036;-61
2022/05/25 13:24:49;;;;;;;3.97;1.00;;;;;;;;;;4895537;29;19915;-62
2022/05/25 13:27:21;;;;;;;3.45;1.15;;;;;;;;;;4895555;29;20244;-64
2022/05/25 13:29:54;;;;;;;1.38;1.00;;;;;;;;;;4895116;29;20033;-63
2022/05/25 13:32:39;;;;;;;1.80;1.00;;;;;;;;;;4894726;29;20045;-62
2022/05/25 13:35:42;;;;;;;3.30;0.90;;;;;;;;;;4895211;29;20047;-63
2022/05/25 13:38:18;;;;;;;3.42;1.10;;;;;;;;;;4894911;29;20097;-63
2022/05/25 13:40:51;;;;;;;2.78;1.35;;;;;;;;;;4895518;29;20083;-63
2022/05/25 13:43:40;;;;;;;1.90;1.20;;;;;;;;;;4894887;29;20120;-62
2022/05/25 13:46:09;;;;;;;1.90;1.25;;;;;;;;;;4945702;28;20109;-64
2022/05/25 13:48:36;;;;;;;2.17;1.25;;;;;;;;;;4989509;28;20109;-63
2022/05/25 13:51:02;;;;;;;2.33;1.08;;;;;;;;;;4993804;28;20048;-63
2022/05/25 13:53:38;;;;;;;3.35;1.20;;;;;;;;;;4995939;28;20022;-63
2022/05/25 13:56:08;;;;;;;2.20;1.42;;;;;;;;;;4995956;28;20034;-63
2022/05/25 13:58:36;;;;;;;;;;;;;;;;;;4995855;28;20031;-63
2022/05/25 14:01:06;;;;;;;3.42;1.48;;;;;;;;;;4995893;28;19918;-62
2022/05/25 14:03:34;;;;;;;3.13;1.58;;;;;;;;;;4997433;28;20367;-62
2022/05/25 14:06:04;;;;;;;4.25;1.30;;;;;;;;;;4997302;28;20034;-62
2022/05/25 14:11:42;;;;;;;1.65;1.05;;;;;;;;;;4996644;28;20603;-63
2022/05/25 14:14:26;;;;;;;3.70;1.30;;;;;;;;;;4996282;28;20388;-63
2022/05/25 14:17:01;;;;;;;3.20;1.30;;;;;;;;;;4996549;28;20415;-63
2022/05/25 14:19:33;;;;;;;2.42;1.30;;;;;;;;;;4996309;28;20040;-64
2022/05/25 14:22:09;;;;;;;2.40;1.38;;;;;;;;;;4995727;28;20049;-63
2022/05/25 14:24:38;;;;;;;2.88;1.40;;;;;;;;;;4994268;28;20049;-63
2022/05/25 14:27:25;;;;;;;1.87;1.30;;;;;;;;;;4996295;28;20018;-63
2022/05/25 14:29:52;;;;;;;4.13;1.63;;;;;;;;;;4996391;28;20268;-64
2022/05/25 14:32:25;;;;;;;6.45;1.48;;;;;;;;;;4996028;28;20081;-63
2022/05/25 14:34:54;;;;;;;2.55;1.33;;;;;;;;;;4995649;28;20029;-63
2022/05/25 14:37:22;;;;;;;4.47;1.30;;;;;;;;;;4995751;28;20472;-64
2022/05/25 14:39:52;;;;;;;1.83;1.27;;;;;;;;;;4994887;28;20026;-65
2022/05/25 14:42:21;;;;;;;4.18;1.30;;;;;;;;;;4995189;28;20077;-65
2022/05/25 14:44:53;;;;;;;2.03;1.23;;;;;;;;;;4993222;28;20061;-65
2022/05/25 14:47:33;;;;;;;3.63;1.45;;;;;;;;;;4994963;28;20096;-65
2022/05/25 14:50:22;;;;;;;4.20;1.40;;;;;;;;;;4994714;28;20038;-65
2022/05/25 14:52:59;;;;;;;3.40;1.58;;;;;;;;;;4993060;28;20379;-65
2022/05/25 14:55:33;;;;;;;4.47;1.35;;;;;;;;;;4993260;28;20034;-65
2022/05/25 14:58:27;;;;;;;3.60;1.73;;;;;;;;;;4989272;28;20029;-65
2022/05/25 15:01:02;;;;;;;6.35;1.98;;;;;;;;;;4986315;28;20047;-64
2022/05/25 15:03:45;;;;;;;4.15;1.50;;;;;;;;;;4984082;28;20014;-64
2022/05/25 15:06:11;;;;;;;2.90;2.00;;;;;;;;;;4985615;28;20076;-64
2022/05/25 15:08:43;;;;;;;2.30;1.30;;;;;;;;;;4990944;28;20030;-65
2022/05/25 15:11:33;;;;;;;1.60;1.38;;;;;;;;;;4995070;28;20357;-63
2022/05/25 15:19:50;;;;;;;2.22;1.60;;;;;;;;;;4990249;28;20041;-73
2022/05/25 15:22:19;;;;;;;3.28;1.30;;;;;;;;;;4992638;28;20446;-67
2022/05/25 15:25:04;;;;;;;3.40;1.60;;;;;;;;;;4994276;28;20061;-65
2022/05/25 15:27:36;;;;;;;5.35;1.30;;;;;;;;;;4994851;28;20026;-67
2022/05/25 15:30:18;;;;;;;3.78;1.42;;;;;;;;;;4994470;28;20475;-66
2022/05/25 15:32:44;;;;;;;2.72;1.40;;;;;;;;;;4994649;28;20034;-65
2022/05/25 15:35:09;;;;;;;2.78;1.52;;;;;;;;;;4994451;28;20525;-69
2022/05/25 15:37:35;;;;;;;2.30;1.30;;;;;;;;;;4994449;28;20054;-64
2022/05/25 15:40:00;;;;;;;2.83;1.30;;;;;;;;;;4994354;28;20054;-64
2022/05/25 15:42:26;;;;;;;2.38;1.33;;;;;;;;;;4994275;28;20081;-65
2022/05/25 15:44:51;;;;;;;2.20;1.20;;;;;;;;;;4994172;28;20495;-64
2022/05/25 15:47:18;;;;;;;2.90;1.50;;;;;;;;;;4994000;28;20105;-64
2022/05/25 15:49:44;;;;;;;1.58;1.10;;;;;;;;;;4994207;28;20026;-64
2022/05/25 15:52:11;;;;;;;2.00;1.27;;;;;;;;;;4994148;28;20357;-64